Time;durP1;ratioP1;P1;durP2;ratioP2;P2;SDS_P1;SDS_P2;PMS_P1;PMS_P2;Temp;Humidity;BMP_temperature;BMP_pressure;BME280_temperature;BME280_humidity;BME280_pressure;Samples;Min_cycle;Max_cycle;Signal;HPM_P1;HPM_P2
2022/05/28 00:01:09;;;;;;;5.07;3.45;;;17.40;99.90;;;;;;5071558;28;20016;-71
2022/05/28 00:03:37;;;;;;;4.78;3.20;;;17.40;99.90;;;;;;5072826;28;20021;-71
2022/05/28 00:06:16;;;;;;;4.57;2.70;;;17.40;99.90;;;;;;5072789;28;20024;-71
2022/05/28 00:08:44;;;;;;;3.58;2.83;;;17.50;99.90;;;;;;5072886;28;20051;-72
2022/05/28 00:11:20;;;;;;;4.82;3.03;;;17.60;99.90;;;;;;5071497;28;20036;-72
2022/05/28 00:13:48;;;;;;;4.05;3.13;;;17.70;99.90;;;;;;5073026;28;20059;-71
2022/05/28 00:16:16;;;;;;;3.85;2.50;;;17.70;99.90;;;;;;5071522;28;20028;-72
2022/05/28 00:18:45;;;;;;;6.65;3.92;;;17.80;99.90;;;;;;5072584;28;20361;-72
2022/05/28 00:21:14;;;;;;;3.38;2.92;;;17.80;99.90;;;;;;5072799;28;20021;-72
2022/05/28 00:23:45;;;;;;;3.45;2.97;;;17.80;99.90;;;;;;5072678;28;20024;-72
2022/05/28 00:26:14;;;;;;;4.85;3.10;;;17.80;99.90;;;;;;5072707;28;20361;-72
2022/05/28 00:28:42;;;;;;;4.13;2.75;;;17.90;99.90;;;;;;5072614;28;20032;-72
2022/05/28 00:31:09;;;;;;;5.25;4.07;;;18.00;99.90;;;;;;5071327;28;20028;-72
2022/05/28 00:33:37;;;;;;;4.75;3.67;;;18.10;99.90;;;;;;5072395;28;20170;-72
2022/05/28 00:36:08;;;;;;;5.30;4.28;;;18.10;99.90;;;;;;5071290;28;20059;-72
2022/05/28 00:38:36;;;;;;;7.20;5.03;;;18.10;99.90;;;;;;5075616;28;20032;-72
2022/05/28 00:41:03;;;;;;;6.40;5.40;;;18.20;99.90;;;;;;5076555;28;20465;-72
2022/05/28 00:43:32;;;;;;;7.43;5.13;;;18.20;99.90;;;;;;5076398;28;20111;-72
2022/05/28 00:46:07;;;;;;;9.18;5.20;;;18.20;99.90;;;;;;5076404;28;20017;-72
2022/05/28 00:48:37;;;;;;;6.78;4.43;;;18.20;99.90;;;;;;5075071;28;20389;-72
2022/05/28 00:51:18;;;;;;;4.93;3.88;;;18.30;99.90;;;;;;5076338;28;20024;-70
2022/05/28 00:53:45;;;;;;;4.70;3.50;;;18.30;99.90;;;;;;5076328;28;20036;-71
2022/05/28 00:56:12;;;;;;;4.00;3.03;;;18.50;99.90;;;;;;5076111;28;20048;-71
2022/05/28 00:58:40;;;;;;;4.45;3.28;;;18.50;99.90;;;;;;5075983;28;20028;-71
2022/05/28 01:01:08;;;;;;;4.15;3.65;;;18.60;99.90;;;;;;5074767;28;20017;-70
2022/05/28 01:03:48;;;;;;;4.75;3.78;;;18.60;99.90;;;;;;5075977;28;20021;-71
2022/05/28 01:06:20;;;;;;;3.88;3.25;;;18.70;99.90;;;;;;5074677;28;20025;-71
2022/05/28 01:08:58;;;;;;;11.40;4.03;;;18.70;99.90;;;;;;5076430;28;20029;-71
2022/05/28 01:11:34;;;;;;;5.68;3.13;;;18.90;99.90;;;;;;5074574;28;20452;-71
2022/05/28 01:14:58;;;;;;;4.55;3.35;;;19.00;99.90;;;;;;5076108;28;20021;-71
2022/05/28 01:17:30;;;;;;;4.70;3.40;;;19.20;99.90;;;;;;5017029;28;20445;-71
2022/05/28 01:20:18;;;;;;;4.38;3.00;;;19.30;99.90;;;;;;5016917;28;20108;-71
2022/05/28 01:22:54;;;;;;;3.75;2.42;;;19.20;99.90;;;;;;5066890;28;20396;-71
2022/05/28 01:25:53;;;;;;;4.63;2.90;;;19.20;99.90;;;;;;5075609;28;20025;-71
2022/05/28 01:28:25;;;;;;;5.30;3.10;;;19.20;99.90;;;;;;5061406;28;20024;-71
2022/05/28 01:30:54;;;;;;;4.60;3.33;;;19.30;99.90;;;;;;5074230;28;20111;-71
2022/05/28 01:33:23;;;;;;;3.22;2.92;;;19.40;99.90;;;;;;5075311;28;20043;-71
2022/05/28 01:35:51;;;;;;;4.55;3.50;;;19.50;99.90;;;;;;5074120;28;20147;-71
2022/05/28 01:38:19;;;;;;;3.10;2.80;;;19.60;99.90;;;;;;5075323;28;20162;-71
2022/05/28 01:40:48;;;;;;;3.78;3.05;;;19.70;99.90;;;;;;5075362;28;20025;-71
2022/05/28 01:43:18;;;;;;;3.28;2.65;;;20.10;99.90;;;;;;5074058;28;20021;-71
2022/05/28 01:45:47;;;;;;;3.60;2.50;;;20.20;99.90;;;;;;5075196;28;20023;-72
2022/05/28 01:48:17;;;;;;;4.18;3.17;;;20.40;99.90;;;;;;5073229;28;20032;-71
2022/05/28 01:50:47;;;;;;;2.88;2.45;;;20.30;99.90;;;;;;5074491;28;20020;-71
2022/05/28 01:56:02;;;;;;;4.78;2.78;;;20.30;99.90;;;;;;5075114;28;19911;-72
2022/05/28 01:58:33;;;;;;;3.40;2.58;;;20.10;99.90;;;;;;5074923;28;20020;-72
2022/05/28 02:01:03;;;;;;;4.85;2.08;;;20.10;99.90;;;;;;5075006;28;20016;-72
2022/05/28 02:03:33;;;;;;;3.27;2.10;;;20.20;99.90;;;;;;5073688;28;20407;-71
2022/05/28 02:06:01;;;;;;;3.33;2.20;;;20.40;99.90;;;;;;5074829;28;20337;-72
2022/05/28 02:08:30;;;;;;;3.60;2.42;;;20.40;99.90;;;;;;5073572;28;20403;-71
2022/05/28 02:11:08;;;;;;;2.97;2.15;;;20.50;99.90;;;;;;5073349;28;20029;-71
2022/05/28 02:14:03;;;;;;;3.40;2.22;;;20.80;99.90;;;;;;5074869;28;20429;-71
2022/05/28 02:16:56;;;;;;;3.05;2.20;;;21.10;99.90;;;;;;5074641;28;20029;-71
2022/05/28 02:19:46;;;;;;;4.63;2.08;;;21.20;99.90;;;;;;5073354;28;20486;-71
2022/05/28 02:22:35;;;;;;;2.43;1.90;;;20.90;99.90;;;;;;5074559;28;20371;-71
2022/05/28 02:25:13;;;;;;;4.50;2.00;;;21.20;99.90;;;;;;5074651;28;20285;-72
2022/05/28 02:27:42;;;;;;;4.13;2.22;;;21.40;99.90;;;;;;5073265;28;20116;-70
2022/05/28 02:30:11;;;;;;;4.57;2.28;;;21.10;99.90;;;;;;5074496;28;20388;-71
2022/05/28 02:32:39;;;;;;;3.65;2.50;;;21.10;99.90;;;;;;5074357;28;20051;-71
2022/05/28 02:35:08;;;;;;;5.72;2.53;;;21.30;99.90;;;;;;5074190;28;20408;-72
2022/05/28 02:37:35;;;;;;;3.90;2.08;;;21.40;99.90;;;;;;5072886;28;20024;-71
2022/05/28 02:40:02;;;;;;;3.92;2.05;;;21.30;99.90;;;;;;5074178;28;20063;-71
2022/05/28 02:42:30;;;;;;;3.10;1.80;;;21.30;99.90;;;;;;5072821;28;20481;-71
2022/05/28 02:44:57;;;;;;;10.70;2.58;;;21.10;99.90;;;;;;5072820;28;20016;-72
2022/05/28 02:47:24;;;;;;;2.13;1.50;;;21.30;99.90;;;;;;5072612;28;20024;-72
2022/05/28 02:49:54;;;;;;;1.85;1.30;;;21.30;99.90;;;;;;5074061;28;20028;-72
2022/05/28 02:52:21;;;;;;;1.50;1.13;;;21.20;99.90;;;;;;5074175;28;20027;-72
2022/05/28 02:54:48;;;;;;;2.33;1.17;;;21.40;99.90;;;;;;5072635;28;20024;-72
2022/05/28 02:57:16;;;;;;;2.38;1.23;;;21.20;99.90;;;;;;5073895;28;20476;-72
2022/05/28 02:59:43;;;;;;;4.63;1.48;;;21.10;99.90;;;;;;5073442;28;20334;-71
2022/05/28 03:02:10;;;;;;;1.90;1.60;;;21.00;99.90;;;;;;5072441;28;20017;-71
2022/05/28 03:04:38;;;;;;;1.90;1.75;;;21.00;99.90;;;;;;5073673;28;20028;-71
2022/05/28 03:07:06;;;;;;;17.23;3.20;;;21.00;99.90;;;;;;5073622;28;20520;-72
2022/05/28 03:09:34;;;;;;;2.83;2.13;;;20.80;99.90;;;;;;5073598;28;20017;-72
2022/05/28 03:12:02;;;;;;;2.22;1.77;;;20.70;99.90;;;;;;5073331;28;20029;-73
2022/05/28 03:14:29;;;;;;;2.20;1.65;;;20.70;99.90;;;;;;5073398;28;20024;-71
2022/05/28 03:16:56;;;;;;;3.40;2.03;;;20.60;99.90;;;;;;5071935;28;20056;-70
2022/05/28 03:19:24;;;;;;;3.92;2.10;;;20.50;99.90;;;;;;5073360;28;20070;-70
2022/05/28 03:21:51;;;;;;;2.28;1.48;;;20.40;99.90;;;;;;5073258;28;20020;-72
2022/05/28 03:24:18;;;;;;;2.60;1.60;;;20.30;99.90;;;;;;5073290;28;20473;-71
2022/05/28 03:26:46;;;;;;;4.35;1.90;;;20.40;99.90;;;;;;5073347;28;20469;-71
2022/05/28 03:29:13;;;;;;;2.13;1.60;;;20.40;99.90;;;;;;5073285;28;20017;-71
2022/05/28 03:31:40;;;;;;;1.80;1.30;;;20.30;99.90;;;;;;5072048;28;20020;-70
2022/05/28 03:34:08;;;;;;;3.55;1.63;;;20.30;99.90;;;;;;5071651;28;20051;-70
2022/05/28 03:36:35;;;;;;;3.53;1.55;;;20.30;99.90;;;;;;5073054;28;20016;-70
2022/05/28 03:39:02;;;;;;;3.03;1.50;;;20.30;99.90;;;;;;5073042;28;20047;-69
2022/05/28 03:41:33;;;;;;;3.90;1.50;;;20.50;99.90;;;;;;5071975;28;20063;-71
2022/05/28 03:44:00;;;;;;;3.08;1.63;;;20.40;99.90;;;;;;5073416;28;20373;-70
2022/05/28 03:46:32;;;;;;;3.00;1.60;;;20.30;99.90;;;;;;5073076;28;20469;-71
2022/05/28 03:49:31;;;;;;;4.30;1.50;;;20.20;99.90;;;;;;5071528;28;20024;-70
2022/05/28 03:51:58;;;;;;;2.63;1.33;;;20.20;99.90;;;;;;5072966;28;20123;-72
2022/05/28 03:54:26;;;;;;;2.33;1.50;;;20.20;99.90;;;;;;5071350;28;20052;-71
2022/05/28 03:57:01;;;;;;;3.30;1.55;;;20.20;99.90;;;;;;5072794;28;20020;-72
2022/05/28 03:59:29;;;;;;;3.60;1.77;;;20.20;99.90;;;;;;5071449;28;20112;-72
2022/05/28 04:01:57;;;;;;;1.65;1.10;;;20.20;99.90;;;;;;5072805;28;20019;-72
2022/05/28 04:04:24;;;;;;;3.13;1.27;;;20.20;99.90;;;;;;5072661;28;20066;-72
2022/05/28 04:06:52;;;;;;;2.30;1.15;;;20.30;99.90;;;;;;5072558;28;20024;-71
2022/05/28 04:09:19;;;;;;;3.50;1.45;;;20.30;99.90;;;;;;5071080;28;20089;-71
2022/05/28 04:11:47;;;;;;;2.85;1.25;;;20.20;99.90;;;;;;5070440;28;20035;-72
2022/05/28 04:14:14;;;;;;;3.72;1.00;;;20.20;99.90;;;;;;5071169;28;20032;-71
2022/05/28 04:16:41;;;;;;;1.85;1.30;;;20.10;99.90;;;;;;5072535;28;20108;-71
2022/05/28 04:19:09;;;;;;;2.38;1.10;;;20.10;99.90;;;;;;5072599;28;20017;-72
2022/05/28 04:21:37;;;;;;;5.22;1.20;;;20.10;99.90;;;;;;5072701;28;20052;-70
2022/05/28 04:24:05;;;;;;;2.03;0.90;;;20.10;99.90;;;;;;5071255;28;20029;-71
2022/05/28 04:26:33;;;;;;;2.45;1.10;;;20.10;99.90;;;;;;5072552;28;20020;-70
2022/05/28 04:29:00;;;;;;;1.38;0.98;;;20.20;99.90;;;;;;5072400;28;20021;-72
2022/05/28 04:31:28;;;;;;;2.42;0.90;;;20.20;99.90;;;;;;5072416;28;20021;-71
2022/05/28 04:33:55;;;;;;;1.17;0.82;;;20.10;99.90;;;;;;5072380;28;20048;-71
2022/05/28 04:36:23;;;;;;;1.85;0.80;;;20.10;99.90;;;;;;5071075;28;20028;-71
2022/05/28 04:38:51;;;;;;;4.03;1.00;;;20.10;99.90;;;;;;5070916;28;20111;-69
2022/05/28 04:41:18;;;;;;;2.97;0.80;;;20.20;99.90;;;;;;5072410;28;20070;-70
2022/05/28 04:43:46;;;;;;;1.50;0.80;;;20.20;99.90;;;;;;5072638;28;20020;-69
2022/05/28 04:46:13;;;;;;;0.95;0.60;;;20.20;99.90;;;;;;5072328;28;20035;-70
2022/05/28 04:48:40;;;;;;;1.48;0.73;;;20.10;99.90;;;;;;5072377;28;20021;-70
2022/05/28 04:51:07;;;;;;;1.40;0.70;;;20.10;99.90;;;;;;5072271;28;20086;-69
2022/05/28 04:53:35;;;;;;;2.25;1.05;;;20.20;99.90;;;;;;5072354;28;20412;-70
2022/05/28 04:56:02;;;;;;;1.90;0.50;;;20.10;99.90;;;;;;5070917;28;20388;-70
2022/05/28 04:58:30;;;;;;;0.73;0.50;;;20.10;99.90;;;;;;5072635;28;20058;-70
2022/05/28 05:00:58;;;;;;;0.50;0.30;;;20.20;99.90;;;;;;5072382;28;20031;-69
2022/05/28 05:03:25;;;;;;;0.22;0.22;;;20.00;99.90;;;;;;5071008;28;20020;-70
2022/05/28 05:05:52;;;;;;;0.80;0.20;;;20.00;99.90;;;;;;5072190;28;20020;-69
2022/05/28 05:08:20;;;;;;;2.20;0.30;;;20.00;99.90;;;;;;5072250;28;20393;-68
2022/05/28 05:10:48;;;;;;;1.45;0.35;;;20.10;99.90;;;;;;5070986;28;20127;-70
2022/05/28 05:13:16;;;;;;;0.95;0.50;;;20.20;99.90;;;;;;5072279;28;20104;-70
2022/05/28 05:15:43;;;;;;;0.77;0.35;;;20.20;99.90;;;;;;5070774;28;20115;-70
2022/05/28 05:18:11;;;;;;;1.20;0.70;;;20.10;99.90;;;;;;5071992;28;20025;-70
2022/05/28 05:20:38;;;;;;;1.00;0.38;;;20.10;99.90;;;;;;5070810;28;20070;-70
2022/05/28 05:23:05;;;;;;;0.90;0.70;;;20.10;99.90;;;;;;5071648;28;20031;-70
2022/05/28 05:25:33;;;;;;;1.95;0.60;;;20.10;99.90;;;;;;5075658;28;20025;-70
2022/05/28 05:28:00;;;;;;;1.60;0.43;;;20.00;99.90;;;;;;5075631;28;20473;-70
2022/05/28 05:30:28;;;;;;;2.45;0.50;;;20.00;99.90;;;;;;5075502;28;20492;-70
2022/05/28 05:32:55;;;;;;;1.08;0.50;;;20.00;99.90;;;;;;5075550;28;20491;-70
2022/05/28 05:35:23;;;;;;;1.33;0.63;;;20.00;99.90;;;;;;5075792;28;20047;-70
2022/05/28 05:37:50;;;;;;;1.13;0.60;;;20.10;99.90;;;;;;5075332;28;20025;-70
2022/05/28 05:40:18;;;;;;;0.68;0.60;;;20.20;99.90;;;;;;5075372;28;20070;-70
2022/05/28 05:42:45;;;;;;;1.30;0.70;;;20.20;99.90;;;;;;5075278;28;20052;-70
2022/05/28 05:45:13;;;;;;;0.85;0.70;;;20.30;99.90;;;;;;5075830;28;20024;-70
2022/05/28 05:47:40;;;;;;;1.65;0.70;;;20.30;99.90;;;;;;5075331;28;20504;-71
2022/05/28 05:50:08;;;;;;;1.70;0.60;;;20.30;99.90;;;;;;5074000;28;20024;-71
2022/05/28 05:52:36;;;;;;;3.40;3.20;;;20.20;99.90;;;;;;5075272;28;20016;-70
2022/05/28 05:55:04;;;;;;;2.33;2.13;;;20.10;99.90;;;;;;5075699;28;20020;-70
2022/05/28 05:57:31;;;;;;;2.00;1.08;;;19.90;99.90;;;;;;5075043;28;20368;-70
2022/05/28 05:59:59;;;;;;;1.15;1.05;;;19.80;99.90;;;;;;5075184;28;20472;-70
2022/05/28 06:02:26;;;;;;;0.80;0.50;;;19.70;99.90;;;;;;5075029;28;20508;-70
2022/05/28 06:04:53;;;;;;;1.33;1.23;;;19.50;99.90;;;;;;5073651;28;20105;-70
2022/05/28 06:07:21;;;;;;;1.88;1.77;;;19.40;99.90;;;;;;5075356;28;20121;-71
2022/05/28 06:09:48;;;;;;;0.80;0.60;;;19.30;99.90;;;;;;5074973;28;20042;-71
2022/05/28 06:12:15;;;;;;;2.03;1.05;;;19.20;99.90;;;;;;5074888;28;20020;-71
2022/05/28 06:14:43;;;;;;;7.25;6.70;;;19.20;99.90;;;;;;5074786;28;20020;-69
2022/05/28 06:17:10;;;;;;;14.63;13.43;;;19.00;99.90;;;;;;5074573;28;20108;-71
2022/05/28 06:19:38;;;;;;;6.03;4.95;;;18.90;99.90;;;;;;5074730;28;20100;-71
2022/05/28 06:22:06;;;;;;;1.70;1.20;;;18.80;99.90;;;;;;5074436;28;20385;-71
2022/05/28 06:24:33;;;;;;;4.95;3.85;;;18.70;99.90;;;;;;5074583;28;20017;-71
2022/05/28 06:27:01;;;;;;;1.83;1.10;;;18.60;99.90;;;;;;5074422;28;20082;-72
2022/05/28 06:29:29;;;;;;;1.83;1.00;;;18.70;99.90;;;;;;5073068;28;20554;-72
2022/05/28 06:31:57;;;;;;;1.10;0.85;;;18.70;99.90;;;;;;5074246;28;20020;-72
2022/05/28 06:34:24;;;;;;;6.03;4.35;;;18.70;99.90;;;;;;5072418;28;20094;-72
2022/05/28 06:36:53;;;;;;;2.20;2.00;;;18.60;99.90;;;;;;5073759;28;20028;-72
2022/05/28 06:39:20;;;;;;;3.17;1.67;;;18.50;99.90;;;;;;5074291;28;20031;-72
2022/05/28 06:41:48;;;;;;;1.33;0.60;;;18.40;99.90;;;;;;5074145;28;20043;-72
2022/05/28 06:44:15;;;;;;;1.48;0.85;;;18.40;99.90;;;;;;5074025;28;20026;-72
2022/05/28 06:46:42;;;;;;;1.00;0.82;;;18.40;99.90;;;;;;5074387;28;20016;-72
2022/05/28 06:49:09;;;;;;;1.65;1.38;;;18.30;99.90;;;;;;5073971;28;20389;-72
2022/05/28 06:51:37;;;;;;;0.70;0.70;;;18.30;99.90;;;;;;5073918;28;20131;-72
2022/05/28 06:54:04;;;;;;;0.65;0.52;;;18.20;99.90;;;;;;5072491;28;20024;-72
2022/05/28 06:56:32;;;;;;;2.97;2.22;;;18.20;99.90;;;;;;5073831;28;20028;-72
2022/05/28 06:58:59;;;;;;;2.13;0.68;;;18.20;99.90;;;;;;5074160;28;20024;-72
2022/05/28 07:01:26;;;;;;;1.38;0.73;;;18.20;99.90;;;;;;5073698;28;20092;-72
2022/05/28 07:03:54;;;;;;;1.20;0.52;;;18.10;99.90;;;;;;5073468;28;20013;-71
2022/05/28 07:06:21;;;;;;;1.40;0.50;;;18.10;99.90;;;;;;5072225;28;20220;-72
2022/05/28 07:08:48;;;;;;;0.95;0.45;;;18.10;99.90;;;;;;5073572;28;20024;-72
2022/05/28 07:11:16;;;;;;;1.55;0.70;;;18.00;99.90;;;;;;5073912;28;20028;-72
2022/05/28 07:13:43;;;;;;;0.93;0.40;;;17.90;99.90;;;;;;5073586;28;20031;-72
2022/05/28 07:16:11;;;;;;;1.95;1.40;;;17.80;99.90;;;;;;5073786;28;20499;-73
2022/05/28 07:18:39;;;;;;;2.58;1.52;;;17.60;99.90;;;;;;5073375;28;20361;-72
2022/05/28 07:21:09;;;;;;;1.17;0.77;;;17.40;99.90;;;;;;5073416;28;20420;-72
2022/05/28 07:23:37;;;;;;;8.68;7.97;;;17.30;99.90;;;;;;5073466;28;20052;-72
2022/05/28 07:26:11;;;;;;;1.77;1.55;;;17.30;99.90;;;;;;5073412;28;20107;-73
2022/05/28 07:28:41;;;;;;;1.95;0.98;;;17.20;99.90;;;;;;5073113;28;20550;-73
2022/05/28 07:31:18;;;;;;;2.88;0.90;;;17.00;99.90;;;;;;5073115;28;20077;-72
2022/05/28 07:33:47;;;;;;;1.15;0.70;;;17.10;99.90;;;;;;5071719;28;20049;-72
2022/05/28 07:36:21;;;;;;;1.33;0.80;;;16.90;99.90;;;;;;5073245;28;20020;-70
2022/05/28 07:38:50;;;;;;;1.58;0.80;;;16.90;99.90;;;;;;5071763;28;20527;-70
2022/05/28 07:41:24;;;;;;;1.05;0.80;;;16.80;99.90;;;;;;5073297;28;20027;-70
2022/05/28 07:43:53;;;;;;;2.40;1.10;;;16.70;99.90;;;;;;5073157;28;20039;-70
2022/05/28 07:46:23;;;;;;;3.15;1.70;;;16.60;99.90;;;;;;5073503;28;20105;-70
2022/05/28 07:48:51;;;;;;;2.35;0.80;;;16.60;99.90;;;;;;5071733;28;20029;-70
2022/05/28 07:51:18;;;;;;;1.98;0.93;;;16.60;99.90;;;;;;5073001;28;20082;-70
2022/05/28 07:53:46;;;;;;;1.65;0.98;;;16.70;99.90;;;;;;5071701;28;20021;-72
2022/05/28 07:56:13;;;;;;;3.60;1.35;;;16.70;99.90;;;;;;5072832;28;20020;-72
2022/05/28 07:58:41;;;;;;;2.05;1.00;;;16.60;99.90;;;;;;5072811;28;20142;-71
2022/05/28 08:01:19;;;;;;;2.03;1.40;;;16.70;99.90;;;;;;5072876;28;20013;-71
2022/05/28 08:03:47;;;;;;;2.83;1.35;;;16.70;99.90;;;;;;5072779;28;20405;-71
2022/05/28 08:06:15;;;;;;;2.55;1.20;;;16.80;99.90;;;;;;5071382;28;20031;-71
2022/05/28 08:08:42;;;;;;;2.28;1.20;;;16.80;99.90;;;;;;5072740;28;20021;-71
2022/05/28 08:11:10;;;;;;;1.70;1.20;;;16.80;99.90;;;;;;5071474;28;20028;-71
2022/05/28 08:13:38;;;;;;;2.25;1.60;;;16.80;99.90;;;;;;5072801;28;20028;-72
2022/05/28 08:16:05;;;;;;;1.90;1.13;;;16.90;99.90;;;;;;5072752;28;20027;-71
2022/05/28 08:18:35;;;;;;;2.10;1.40;;;16.90;99.90;;;;;;5072635;28;20473;-72
2022/05/28 08:23:48;;;;;;;3.42;2.35;;;16.90;99.90;;;;;;5073162;28;20023;-72
2022/05/28 08:26:19;;;;;;;4.43;3.45;;;16.90;99.90;;;;;;5071256;28;20118;-71
2022/05/28 08:28:48;;;;;;;2.13;1.10;;;16.90;99.90;;;;;;5072577;28;20032;-71
2022/05/28 08:31:17;;;;;;;4.22;3.00;;;16.90;99.90;;;;;;5072553;28;20038;-71
2022/05/28 08:33:44;;;;;;;2.53;1.55;;;16.80;99.90;;;;;;5072346;28;20131;-71
2022/05/28 08:36:13;;;;;;;2.50;1.65;;;16.80;99.90;;;;;;5072535;28;20031;-71
2022/05/28 08:38:40;;;;;;;2.97;2.20;;;16.70;99.90;;;;;;5071133;28;20032;-71
2022/05/28 08:41:12;;;;;;;3.42;2.30;;;16.70;99.90;;;;;;5072525;28;20105;-72
2022/05/28 08:43:58;;;;;;;3.88;2.60;;;16.60;99.90;;;;;;5072478;28;20020;-71
2022/05/28 08:46:28;;;;;;;4.00;2.33;;;16.50;99.90;;;;;;5072710;28;20035;-71
2022/05/28 08:48:57;;;;;;;4.10;3.15;;;16.50;99.90;;;;;;5071212;28;20029;-71
2022/05/28 08:51:39;;;;;;;3.38;2.53;;;16.40;99.90;;;;;;5072656;28;20040;-71
2022/05/28 08:54:06;;;;;;;6.30;3.15;;;16.30;99.90;;;;;;5072882;28;20113;-70
2022/05/28 08:56:36;;;;;;;4.55;2.65;;;16.20;99.90;;;;;;5072369;28;20399;-70
2022/05/28 08:59:18;;;;;;;4.95;2.90;;;16.10;99.90;;;;;;5074371;28;20025;-71
2022/05/28 09:01:46;;;;;;;3.67;2.75;;;16.10;99.90;;;;;;5076216;28;20021;-71
2022/05/28 09:04:23;;;;;;;4.45;2.55;;;16.00;99.90;;;;;;5075995;28;20013;-71
2022/05/28 09:06:55;;;;;;;5.80;3.92;;;15.80;99.90;;;;;;5076372;28;20070;-73
2022/05/28 09:09:41;;;;;;;5.78;4.38;;;15.70;99.90;;;;;;5074687;28;20016;-71
2022/05/28 09:12:35;;;;;;;6.47;4.22;;;15.60;99.90;;;;;;5074653;28;20065;-71
2022/05/28 09:15:03;;;;;;;11.60;9.25;;;15.50;99.90;;;;;;5075965;28;20024;-71
2022/05/28 09:17:40;;;;;;;14.18;11.85;;;15.40;99.90;;;;;;5075753;28;20380;-70
2022/05/28 09:20:17;;;;;;;17.17;14.45;;;15.30;99.90;;;;;;5075818;28;20028;-69
2022/05/28 09:22:45;;;;;;;14.68;11.77;;;15.30;99.90;;;;;;5076124;28;20104;-70
2022/05/28 09:25:14;;;;;;;13.20;10.70;;;15.30;99.90;;;;;;5075708;28;20107;-71
2022/05/28 09:27:44;;;;;;;6.63;4.90;;;15.30;99.90;;;;;;5075648;28;20107;-70
2022/05/28 09:30:40;;;;;;;5.60;3.85;;;15.30;99.90;;;;;;5075849;28;20052;-72
2022/05/28 09:33:23;;;;;;;4.57;3.67;;;15.40;99.90;;;;;;5075532;28;20025;-70
2022/05/28 09:36:29;;;;;;;3.95;2.55;;;15.40;99.90;;;;;;5075580;28;20035;-70
2022/05/28 09:39:15;;;;;;;4.25;2.90;;;15.50;99.90;;;;;;5073349;28;20036;-72
2022/05/28 09:42:04;;;;;;;5.50;2.85;;;15.50;99.90;;;;;;5074039;28;20553;-70
2022/05/28 09:45:02;;;;;;;5.40;3.47;;;15.50;99.90;;;;;;5075495;28;20058;-70
2022/05/28 09:47:29;;;;;;;6.30;3.72;;;15.50;99.90;;;;;;5075375;28;20112;-70
2022/05/28 09:49:57;;;;;;;4.57;3.30;;;15.50;99.90;;;;;;5075346;28;20388;-70
2022/05/28 09:52:28;;;;;;;5.22;3.47;;;15.50;99.90;;;;;;5075280;28;20412;-70
2022/05/28 09:55:18;;;;;;;5.35;3.40;;;15.40;99.90;;;;;;5073975;28;20025;-70
2022/05/28 09:58:07;;;;;;;4.65;3.45;;;15.40;99.90;;;;;;5075116;28;20498;-70
2022/05/28 10:00:35;;;;;;;5.75;3.70;;;15.30;99.90;;;;;;5074716;28;20086;-69
2022/05/28 10:05:56;;;;;;;4.28;3.50;;;15.30;99.90;;;;;;5075204;28;20384;-70
2022/05/28 10:08:31;;;;;;;5.68;3.45;;;15.30;99.90;;;;;;5075310;28;20074;-70
2022/05/28 10:11:05;;;;;;;5.45;3.70;;;15.50;99.90;;;;;;5073841;28;20066;-71
2022/05/28 10:13:53;;;;;;;6.30;3.50;;;15.50;99.90;;;;;;5074943;28;20024;-71
2022/05/28 10:16:24;;;;;;;4.45;3.17;;;15.50;99.90;;;;;;5074881;28;20029;-71
2022/05/28 10:18:56;;;;;;;4.93;3.45;;;15.50;99.90;;;;;;5074757;28;20029;-69
2022/05/28 10:21:38;;;;;;;4.60;3.58;;;15.40;99.90;;;;;;5074749;28;20017;-69
2022/05/28 10:24:17;;;;;;;3.33;2.53;;;15.40;99.90;;;;;;5074720;28;20021;-69
2022/05/28 10:27:02;;;;;;;5.05;2.92;;;15.30;99.90;;;;;;5074675;28;20024;-70
2022/05/28 10:29:44;;;;;;;4.45;2.60;;;15.30;99.90;;;;;;5073311;28;20025;-70
2022/05/28 10:32:28;;;;;;;4.05;2.50;;;15.30;99.90;;;;;;5073204;28;20396;-69
2022/05/28 10:35:23;;;;;;;5.65;2.92;;;15.20;99.90;;;;;;5074241;28;20107;-70
2022/05/28 10:37:51;;;;;;;3.38;2.67;;;15.20;99.90;;;;;;5074442;28;20028;-72
2022/05/28 10:40:25;;;;;;;3.25;2.40;;;15.10;99.90;;;;;;5074302;28;20032;-70
2022/05/28 10:43:06;;;;;;;4.13;3.00;;;15.20;99.90;;;;;;5074180;28;20017;-70
2022/05/28 10:45:47;;;;;;;4.03;2.60;;;15.10;99.90;;;;;;5074241;28;20108;-70
2022/05/28 10:48:27;;;;;;;5.00;2.75;;;15.00;99.90;;;;;;5072954;28;20127;-72
2022/05/28 10:51:46;;;;;;;5.77;2.73;;;15.00;99.90;;;;;;5074203;28;20111;-70
2022/05/28 10:54:24;;;;;;;3.55;2.72;;;14.90;99.90;;;;;;5056804;28;20036;-69
2022/05/28 10:57:28;;;;;;;4.60;2.70;;;14.90;99.90;;;;;;5072435;28;20506;-70
2022/05/28 10:59:55;;;;;;;4.05;2.42;;;14.90;99.90;;;;;;5074093;28;20025;-72
2022/05/28 11:02:41;;;;;;;3.33;2.53;;;14.80;99.90;;;;;;5074034;28;20020;-70
2022/05/28 11:05:26;;;;;;;4.82;2.70;;;14.80;99.90;;;;;;5073949;28;20154;-70
2022/05/28 11:07:59;;;;;;;3.78;2.35;;;14.80;99.90;;;;;;5072392;28;20036;-71
2022/05/28 11:10:35;;;;;;;5.03;2.70;;;14.70;99.90;;;;;;5074224;28;20027;-71
2022/05/28 11:13:41;;;;;;;2.70;2.05;;;14.70;99.90;;;;;;5073676;28;20048;-71
2022/05/28 11:16:32;;;;;;;3.40;2.53;;;14.70;99.90;;;;;;5072887;28;20382;-71
2022/05/28 11:18:59;;;;;;;3.78;2.22;;;14.70;99.90;;;;;;5073654;28;20082;-71
2022/05/28 11:21:45;;;;;;;3.60;2.60;;;14.60;99.90;;;;;;5073528;28;20481;-72
2022/05/28 11:24:24;;;;;;;3.17;2.58;;;14.50;99.90;;;;;;5072257;28;20125;-71
2022/05/28 11:27:07;;;;;;;4.65;2.58;;;14.50;99.90;;;;;;5073608;28;20502;-71
2022/05/28 11:29:56;;;;;;;3.35;2.42;;;14.40;99.90;;;;;;5073402;28;20021;-72
2022/05/28 11:32:50;;;;;;;4.18;2.47;;;14.40;99.90;;;;;;5071990;28;20044;-71
2022/05/28 11:35:38;;;;;;;3.35;2.25;;;14.30;99.90;;;;;;5073183;28;20043;-71
2022/05/28 11:38:32;;;;;;;4.38;2.08;;;14.30;99.90;;;;;;5073180;28;20031;-71
2022/05/28 11:41:13;;;;;;;3.97;2.55;;;14.20;99.90;;;;;;5073265;28;20057;-71
2022/05/28 11:43:49;;;;;;;2.70;2.03;;;14.10;99.90;;;;;;5071995;28;20070;-71
2022/05/28 11:46:35;;;;;;;4.05;1.90;;;14.00;99.90;;;;;;5073388;28;20025;-71
2022/05/28 11:52:04;;;;;;;2.47;1.52;;;14.00;99.90;;;;;;5073551;28;20031;-71
2022/05/28 11:54:55;;;;;;;2.42;1.75;;;14.00;99.90;;;;;;5071724;28;20504;-71
2022/05/28 11:57:54;;;;;;;2.78;1.67;;;14.00;99.90;;;;;;5072958;28;20027;-71
2022/05/28 12:00:25;;;;;;;1.73;1.50;;;14.00;99.90;;;;;;5073030;28;20020;-71
2022/05/28 12:03:06;;;;;;;2.83;1.88;;;14.00;99.90;;;;;;5072972;28;20426;-71
2022/05/28 12:05:53;;;;;;;3.15;2.42;;;13.90;99.90;;;;;;5072931;28;20385;-71
2022/05/28 12:08:33;;;;;;;3.42;1.65;;;14.00;99.90;;;;;;5071934;28;20033;-71
2022/05/28 12:11:10;;;;;;;2.88;1.67;;;14.00;99.90;;;;;;5073119;28;20028;-71
2022/05/28 12:13:52;;;;;;;1.77;1.45;;;14.00;99.90;;;;;;5071616;28;20031;-71
2022/05/28 12:16:22;;;;;;;2.08;1.45;;;14.00;99.90;;;;;;5071480;28;20489;-72
2022/05/28 12:18:59;;;;;;;2.10;1.27;;;14.00;99.90;;;;;;5072725;28;20052;-72
2022/05/28 12:21:32;;;;;;;1.63;1.35;;;13.90;99.90;;;;;;5073339;28;20432;-72
2022/05/28 12:24:10;;;;;;;1.70;1.25;;;13.80;99.90;;;;;;5072798;28;20049;-72
2022/05/28 12:29:44;;;;;;;1.63;1.48;;;13.80;99.90;;;;;;5072705;28;20104;-71
2022/05/28 12:32:17;;;;;;;1.25;1.10;;;13.80;99.90;;;;;;5071389;28;20635;-72
2022/05/28 12:35:22;;;;;;;1.88;1.33;;;13.80;99.90;;;;;;5075874;28;20116;-71
2022/05/28 12:38:10;;;;;;;2.17;1.30;;;13.80;99.90;;;;;;5077076;28;20020;-72
2022/05/28 12:40:59;;;;;;;1.85;1.25;;;13.80;99.90;;;;;;5075328;28;20384;-71
2022/05/28 12:43:32;;;;;;;1.83;1.35;;;13.70;99.90;;;;;;5076603;28;20081;-72
2022/05/28 12:46:17;;;;;;;2.00;1.42;;;13.70;99.90;;;;;;5076475;28;20017;-72
2022/05/28 12:48:45;;;;;;;2.47;1.27;;;13.70;99.90;;;;;;5075146;28;20035;-71
2022/05/28 12:51:39;;;;;;;2.22;1.42;;;13.80;99.90;;;;;;5076468;28;20032;-72
2022/05/28 12:54:07;;;;;;;1.95;1.10;;;13.80;99.90;;;;;;5076617;28;20499;-72
2022/05/28 12:56:34;;;;;;;3.92;1.40;;;13.80;99.90;;;;;;5074993;28;20029;-72
2022/05/28 12:59:11;;;;;;;1.83;1.20;;;13.80;99.90;;;;;;5076753;28;20103;-71
2022/05/28 13:02:00;;;;;;;1.73;1.13;;;13.80;99.90;;;;;;5076251;28;20024;-72
2022/05/28 13:04:41;;;;;;;1.83;1.10;;;13.80;99.90;;;;;;5064258;28;20056;-71
2022/05/28 13:07:18;;;;;;;;;;;13.90;99.90;;;;;;5075222;28;20020;-72
2022/05/28 13:09:46;;;;;;;1.92;1.13;;;13.80;99.90;;;;;;5076075;28;19912;-71
2022/05/28 13:12:52;;;;;;;1.95;1.30;;;13.70;99.90;;;;;;5075997;28;20021;-71
2022/05/28 13:15:42;;;;;;;1.30;1.17;;;13.70;99.90;;;;;;5052972;28;20032;-71
2022/05/28 13:18:53;;;;;;;1.80;1.30;;;13.70;99.90;;;;;;5076272;28;20016;-71
2022/05/28 13:21:32;;;;;;;1.48;1.20;;;13.70;99.90;;;;;;5062600;28;20654;-72
2022/05/28 13:24:27;;;;;;;2.30;1.52;;;13.70;99.90;;;;;;5076439;28;20152;-72
2022/05/28 13:27:27;;;;;;;1.88;1.25;;;13.60;99.90;;;;;;5076273;28;20024;-72
2022/05/28 13:29:54;;;;;;;1.83;1.23;;;13.60;99.90;;;;;;5076246;28;20084;-73
2022/05/28 13:32:34;;;;;;;2.67;1.65;;;13.50;99.90;;;;;;5075711;28;20021;-71